sensor_id;sensor_type;location;lat;lon;timestamp;P1;durP1;ratioP1;P2;durP2;ratioP2
9807;SDS011;4943;52.550;13.462;2023-08-24T00:00:47;362.60;;;317.80;;
9807;SDS011;4943;52.550;13.462;2023-08-24T00:03:16;352.43;;;307.27;;
9807;SDS011;4943;52.550;13.462;2023-08-24T00:05:45;355.17;;;311.17;;
9807;SDS011;4943;52.550;13.462;2023-08-24T00:08:15;357.60;;;318.07;;
9807;SDS011;4943;52.550;13.462;2023-08-24T00:10:45;358.97;;;319.07;;
9807;SDS011;4943;52.550;13.462;2023-08-24T00:13:13;360.83;;;319.67;;
9807;SDS011;4943;52.550;13.462;2023-08-24T00:15:42;351.00;;;296.50;;
9807;SDS011;4943;52.550;13.462;2023-08-24T00:18:10;358.83;;;318.20;;
9807;SDS011;4943;52.550;13.462;2023-08-24T00:20:38;373.57;;;333.67;;
9807;SDS011;4943;52.550;13.462;2023-08-24T00:23:06;357.37;;;314.93;;
9807;SDS011;4943;52.550;13.462;2023-08-24T00:25:34;354.93;;;306.63;;
9807;SDS011;4943;52.550;13.462;2023-08-24T00:28:04;348.93;;;299.40;;
9807;SDS011;4943;52.550;13.462;2023-08-24T00:30:32;351.03;;;297.57;;
9807;SDS011;4943;52.550;13.462;2023-08-24T00:33:01;360.73;;;321.03;;
9807;SDS011;4943;52.550;13.462;2023-08-24T00:35:30;356.83;;;309.17;;
9807;SDS011;4943;52.550;13.462;2023-08-24T00:37:59;350.30;;;302.03;;
9807;SDS011;4943;52.550;13.462;2023-08-24T00:40:27;355.67;;;303.63;;
9807;SDS011;4943;52.550;13.462;2023-08-24T00:42:55;354.23;;;303.23;;
9807;SDS011;4943;52.550;13.462;2023-08-24T00:45:25;357.37;;;312.00;;
9807;SDS011;4943;52.550;13.462;2023-08-24T00:47:53;348.80;;;296.17;;
9807;SDS011;4943;52.550;13.462;2023-08-24T00:50:22;355.53;;;303.53;;
9807;SDS011;4943;52.550;13.462;2023-08-24T00:52:50;343.90;;;285.57;;
9807;SDS011;4943;52.550;13.462;2023-08-24T00:55:18;352.57;;;301.07;;
9807;SDS011;4943;52.550;13.462;2023-08-24T00:57:47;348.30;;;290.33;;
9807;SDS011;4943;52.550;13.462;2023-08-24T01:00:17;351.23;;;302.73;;
9807;SDS011;4943;52.550;13.462;2023-08-24T01:02:47;350.93;;;295.90;;
9807;SDS011;4943;52.550;13.462;2023-08-24T01:05:15;347.77;;;284.20;;
9807;SDS011;4943;52.550;13.462;2023-08-24T01:07:43;352.27;;;288.97;;
9807;SDS011;4943;52.550;13.462;2023-08-24T01:10:11;346.03;;;285.77;;
9807;SDS011;4943;52.550;13.462;2023-08-24T01:12:43;349.60;;;300.37;;
9807;SDS011;4943;52.550;13.462;2023-08-24T01:15:19;350.30;;;293.73;;
9807;SDS011;4943;52.550;13.462;2023-08-24T01:17:56;355.10;;;306.67;;
9807;SDS011;4943;52.550;13.462;2023-08-24T01:20:31;349.23;;;294.83;;
9807;SDS011;4943;52.550;13.462;2023-08-24T01:23:04;352.60;;;294.37;;
9807;SDS011;4943;52.550;13.462;2023-08-24T01:25:42;343.20;;;280.93;;
9807;SDS011;4943;52.550;13.462;2023-08-24T01:28:19;352.17;;;299.57;;
9807;SDS011;4943;52.550;13.462;2023-08-24T01:30:48;350.87;;;296.63;;
9807;SDS011;4943;52.550;13.462;2023-08-24T01:33:16;355.37;;;314.77;;
9807;SDS011;4943;52.550;13.462;2023-08-24T01:35:45;351.30;;;299.67;;
9807;SDS011;4943;52.550;13.462;2023-08-24T01:38:13;347.77;;;293.07;;
9807;SDS011;4943;52.550;13.462;2023-08-24T01:40:44;349.77;;;303.57;;
9807;SDS011;4943;52.550;13.462;2023-08-24T01:43:16;348.10;;;288.90;;
9807;SDS011;4943;52.550;13.462;2023-08-24T01:46:08;353.17;;;300.43;;
9807;SDS011;4943;52.550;13.462;2023-08-24T01:48:38;354.17;;;314.60;;
9807;SDS011;4943;52.550;13.462;2023-08-24T01:51:07;353.67;;;314.10;;
9807;SDS011;4943;52.550;13.462;2023-08-24T01:53:36;349.43;;;294.23;;
9807;SDS011;4943;52.550;13.462;2023-08-24T01:56:09;349.80;;;304.30;;
9807;SDS011;4943;52.550;13.462;2023-08-24T01:58:39;354.37;;;314.40;;
9807;SDS011;4943;52.550;13.462;2023-08-24T02:01:08;345.30;;;294.70;;
9807;SDS011;4943;52.550;13.462;2023-08-24T02:03:37;352.07;;;313.10;;
9807;SDS011;4943;52.550;13.462;2023-08-24T02:06:07;343.73;;;288.83;;
9807;SDS011;4943;52.550;13.462;2023-08-24T02:08:35;351.20;;;309.10;;
9807;SDS011;4943;52.550;13.462;2023-08-24T02:11:04;349.43;;;300.60;;
9807;SDS011;4943;52.550;13.462;2023-08-24T02:13:32;345.27;;;291.63;;
9807;SDS011;4943;52.550;13.462;2023-08-24T02:16:02;348.80;;;304.53;;
9807;SDS011;4943;52.550;13.462;2023-08-24T02:18:30;349.90;;;304.10;;
9807;SDS011;4943;52.550;13.462;2023-08-24T02:20:59;354.80;;;303.87;;
9807;SDS011;4943;52.550;13.462;2023-08-24T02:23:28;352.63;;;301.73;;
9807;SDS011;4943;52.550;13.462;2023-08-24T02:25:56;347.70;;;296.10;;
9807;SDS011;4943;52.550;13.462;2023-08-24T02:28:24;350.07;;;302.30;;
9807;SDS011;4943;52.550;13.462;2023-08-24T02:30:52;352.17;;;311.27;;
9807;SDS011;4943;52.550;13.462;2023-08-24T02:33:22;349.83;;;304.27;;
9807;SDS011;4943;52.550;13.462;2023-08-24T02:35:50;362.13;;;322.83;;
9807;SDS011;4943;52.550;13.462;2023-08-24T02:38:18;347.90;;;294.53;;
9807;SDS011;4943;52.550;13.462;2023-08-24T02:40:46;348.03;;;304.70;;
9807;SDS011;4943;52.550;13.462;2023-08-24T02:43:14;350.03;;;304.17;;
9807;SDS011;4943;52.550;13.462;2023-08-24T02:45:42;350.27;;;309.63;;
9807;SDS011;4943;52.550;13.462;2023-08-24T02:48:11;353.40;;;311.87;;
9807;SDS011;4943;52.550;13.462;2023-08-24T02:50:40;350.70;;;309.30;;
9807;SDS011;4943;52.550;13.462;2023-08-24T02:53:13;352.40;;;302.97;;
9807;SDS011;4943;52.550;13.462;2023-08-24T02:55:41;341.53;;;286.80;;
9807;SDS011;4943;52.550;13.462;2023-08-24T02:58:10;347.97;;;301.43;;
9807;SDS011;4943;52.550;13.462;2023-08-24T03:00:38;349.73;;;308.33;;
9807;SDS011;4943;52.550;13.462;2023-08-24T03:03:06;372.40;;;332.70;;
9807;SDS011;4943;52.550;13.462;2023-08-24T03:05:34;355.57;;;316.73;;
9807;SDS011;4943;52.550;13.462;2023-08-24T03:08:04;387.03;;;346.57;;
9807;SDS011;4943;52.550;13.462;2023-08-24T03:10:34;362.87;;;323.17;;
9807;SDS011;4943;52.550;13.462;2023-08-24T03:13:02;362.87;;;323.77;;
9807;SDS011;4943;52.550;13.462;2023-08-24T03:15:31;355.47;;;316.37;;
9807;SDS011;4943;52.550;13.462;2023-08-24T03:17:59;370.73;;;330.67;;
9807;SDS011;4943;52.550;13.462;2023-08-24T03:20:27;355.93;;;316.77;;
9807;SDS011;4943;52.550;13.462;2023-08-24T03:22:55;355.83;;;316.77;;
9807;SDS011;4943;52.550;13.462;2023-08-24T03:25:25;349.60;;;309.50;;
9807;SDS011;4943;52.550;13.462;2023-08-24T03:27:53;358.37;;;318.83;;
9807;SDS011;4943;52.550;13.462;2023-08-24T03:30:21;356.80;;;317.53;;
9807;SDS011;4943;52.550;13.462;2023-08-24T03:32:50;357.73;;;318.80;;
9807;SDS011;4943;52.550;13.462;2023-08-24T03:35:18;350.00;;;309.63;;
9807;SDS011;4943;52.550;13.462;2023-08-24T03:37:46;377.10;;;337.03;;
9807;SDS011;4943;52.550;13.462;2023-08-24T03:40:15;356.37;;;317.30;;
9807;SDS011;4943;52.550;13.462;2023-08-24T03:42:44;369.90;;;330.30;;
9807;SDS011;4943;52.550;13.462;2023-08-24T03:45:13;363.60;;;321.43;;
9807;SDS011;4943;52.550;13.462;2023-08-24T03:47:41;368.43;;;328.87;;
9807;SDS011;4943;52.550;13.462;2023-08-24T03:50:09;364.20;;;324.60;;
9807;SDS011;4943;52.550;13.462;2023-08-24T03:52:37;379.83;;;340.20;;
9807;SDS011;4943;52.550;13.462;2023-08-24T03:55:06;360.07;;;321.07;;
9807;SDS011;4943;52.550;13.462;2023-08-24T03:57:34;345.23;;;298.33;;
9807;SDS011;4943;52.550;13.462;2023-08-24T04:00:06;363.27;;;322.73;;
9807;SDS011;4943;52.550;13.462;2023-08-24T04:02:37;361.57;;;322.27;;
9807;SDS011;4943;52.550;13.462;2023-08-24T04:05:06;368.43;;;329.10;;
9807;SDS011;4943;52.550;13.462;2023-08-24T04:07:34;370.93;;;330.70;;
9807;SDS011;4943;52.550;13.462;2023-08-24T04:10:05;373.93;;;334.07;;
9807;SDS011;4943;52.550;13.462;2023-08-24T04:12:34;362.33;;;323.27;;
9807;SDS011;4943;52.550;13.462;2023-08-24T04:15:02;359.30;;;320.17;;
9807;SDS011;4943;52.550;13.462;2023-08-24T04:17:33;367.17;;;327.63;;
9807;SDS011;4943;52.550;13.462;2023-08-24T04:20:01;372.50;;;332.80;;
9807;SDS011;4943;52.550;13.462;2023-08-24T04:22:32;371.97;;;332.43;;
9807;SDS011;4943;52.550;13.462;2023-08-24T04:25:01;366.10;;;326.70;;
9807;SDS011;4943;52.550;13.462;2023-08-24T04:27:29;365.43;;;326.30;;
9807;SDS011;4943;52.550;13.462;2023-08-24T04:29:58;373.13;;;333.73;;
9807;SDS011;4943;52.550;13.462;2023-08-24T04:32:27;376.10;;;336.57;;
9807;SDS011;4943;52.550;13.462;2023-08-24T04:34:56;375.10;;;335.53;;
9807;SDS011;4943;52.550;13.462;2023-08-24T04:37:25;380.50;;;340.83;;
9807;SDS011;4943;52.550;13.462;2023-08-24T04:39:53;378.83;;;339.20;;
9807;SDS011;4943;52.550;13.462;2023-08-24T04:42:21;370.33;;;330.87;;
9807;SDS011;4943;52.550;13.462;2023-08-24T04:44:50;378.63;;;339.07;;
9807;SDS011;4943;52.550;13.462;2023-08-24T04:47:18;378.87;;;339.47;;
9807;SDS011;4943;52.550;13.462;2023-08-24T04:49:46;373.03;;;333.53;;
9807;SDS011;4943;52.550;13.462;2023-08-24T04:52:16;363.57;;;324.27;;
9807;SDS011;4943;52.550;13.462;2023-08-24T04:54:44;376.77;;;337.47;;
9807;SDS011;4943;52.550;13.462;2023-08-24T04:57:12;380.87;;;341.30;;
9807;SDS011;4943;52.550;13.462;2023-08-24T04:59:40;398.87;;;358.50;;
9807;SDS011;4943;52.550;13.462;2023-08-24T05:02:09;376.93;;;337.47;;
9807;SDS011;4943;52.550;13.462;2023-08-24T05:04:37;382.83;;;343.00;;
9807;SDS011;4943;52.550;13.462;2023-08-24T05:07:05;382.00;;;342.27;;
9807;SDS011;4943;52.550;13.462;2023-08-24T05:09:34;373.80;;;334.37;;
9807;SDS011;4943;52.550;13.462;2023-08-24T05:12:03;393.93;;;354.10;;
9807;SDS011;4943;52.550;13.462;2023-08-24T05:14:31;402.93;;;362.83;;
9807;SDS011;4943;52.550;13.462;2023-08-24T05:17:00;376.60;;;336.97;;
9807;SDS011;4943;52.550;13.462;2023-08-24T05:19:29;389.17;;;349.27;;
9807;SDS011;4943;52.550;13.462;2023-08-24T05:21:57;396.63;;;356.37;;
9807;SDS011;4943;52.550;13.462;2023-08-24T05:24:25;413.43;;;372.93;;
9807;SDS011;4943;52.550;13.462;2023-08-24T05:26:54;397.03;;;357.10;;
9807;SDS011;4943;52.550;13.462;2023-08-24T05:29:23;375.03;;;335.90;;
9807;SDS011;4943;52.550;13.462;2023-08-24T05:31:51;414.43;;;373.30;;
9807;SDS011;4943;52.550;13.462;2023-08-24T05:34:19;407.07;;;366.30;;
9807;SDS011;4943;52.550;13.462;2023-08-24T05:36:47;417.50;;;376.77;;
9807;SDS011;4943;52.550;13.462;2023-08-24T05:39:15;425.20;;;384.07;;
9807;SDS011;4943;52.550;13.462;2023-08-24T05:41:43;420.57;;;379.70;;
9807;SDS011;4943;52.550;13.462;2023-08-24T05:44:13;425.97;;;385.10;;
9807;SDS011;4943;52.550;13.462;2023-08-24T05:46:43;419.07;;;378.30;;
9807;SDS011;4943;52.550;13.462;2023-08-24T05:49:11;424.63;;;383.73;;
9807;SDS011;4943;52.550;13.462;2023-08-24T05:51:39;432.73;;;391.70;;
9807;SDS011;4943;52.550;13.462;2023-08-24T05:54:07;434.63;;;393.53;;
9807;SDS011;4943;52.550;13.462;2023-08-24T05:56:35;441.17;;;399.83;;
9807;SDS011;4943;52.550;13.462;2023-08-24T05:59:04;422.30;;;381.77;;
9807;SDS011;4943;52.550;13.462;2023-08-24T06:01:33;436.00;;;394.47;;
9807;SDS011;4943;52.550;13.462;2023-08-24T06:04:05;425.80;;;384.67;;
9807;SDS011;4943;52.550;13.462;2023-08-24T06:06:33;422.53;;;381.87;;
9807;SDS011;4943;52.550;13.462;2023-08-24T06:09:01;423.83;;;382.93;;
9807;SDS011;4943;52.550;13.462;2023-08-24T06:11:35;459.30;;;417.30;;
9807;SDS011;4943;52.550;13.462;2023-08-24T06:14:03;430.83;;;389.63;;
9807;SDS011;4943;52.550;13.462;2023-08-24T06:16:32;436.67;;;395.57;;
9807;SDS011;4943;52.550;13.462;2023-08-24T06:19:01;447.33;;;405.87;;
9807;SDS011;4943;52.550;13.462;2023-08-24T06:21:30;432.70;;;390.77;;
9807;SDS011;4943;52.550;13.462;2023-08-24T06:23:58;447.13;;;405.70;;
9807;SDS011;4943;52.550;13.462;2023-08-24T06:26:27;414.00;;;373.57;;
9807;SDS011;4943;52.550;13.462;2023-08-24T06:28:55;433.40;;;392.00;;
9807;SDS011;4943;52.550;13.462;2023-08-24T06:31:23;447.57;;;405.90;;
9807;SDS011;4943;52.550;13.462;2023-08-24T06:33:53;450.70;;;409.30;;
9807;SDS011;4943;52.550;13.462;2023-08-24T06:36:21;446.03;;;404.17;;
9807;SDS011;4943;52.550;13.462;2023-08-24T06:38:50;455.23;;;413.70;;
9807;SDS011;4943;52.550;13.462;2023-08-24T06:41:19;453.70;;;411.97;;
9807;SDS011;4943;52.550;13.462;2023-08-24T06:43:47;472.07;;;429.63;;
9807;SDS011;4943;52.550;13.462;2023-08-24T06:46:15;446.83;;;405.40;;
9807;SDS011;4943;52.550;13.462;2023-08-24T06:48:43;459.73;;;417.47;;
9807;SDS011;4943;52.550;13.462;2023-08-24T06:51:13;478.47;;;435.80;;
9807;SDS011;4943;52.550;13.462;2023-08-24T06:53:41;451.90;;;410.20;;
9807;SDS011;4943;52.550;13.462;2023-08-24T06:56:10;442.17;;;401.07;;
9807;SDS011;4943;52.550;13.462;2023-08-24T06:58:38;468.17;;;426.23;;
9807;SDS011;4943;52.550;13.462;2023-08-24T07:01:06;444.17;;;402.87;;
9807;SDS011;4943;52.550;13.462;2023-08-24T07:03:34;466.73;;;424.33;;
9807;SDS011;4943;52.550;13.462;2023-08-24T07:06:05;463.33;;;421.07;;
9807;SDS011;4943;52.550;13.462;2023-08-24T07:08:35;468.87;;;426.40;;
9807;SDS011;4943;52.550;13.462;2023-08-24T07:11:03;472.27;;;429.80;;
9807;SDS011;4943;52.550;13.462;2023-08-24T07:13:32;461.33;;;418.73;;
9807;SDS011;4943;52.550;13.462;2023-08-24T07:16:01;460.67;;;419.13;;
9807;SDS011;4943;52.550;13.462;2023-08-24T07:18:30;463.93;;;421.73;;
9807;SDS011;4943;52.550;13.462;2023-08-24T07:20:58;510.17;;;466.73;;
9807;SDS011;4943;52.550;13.462;2023-08-24T07:23:27;471.27;;;429.27;;
9807;SDS011;4943;52.550;13.462;2023-08-24T07:25:56;484.97;;;442.57;;
9807;SDS011;4943;52.550;13.462;2023-08-24T07:28:25;478.30;;;436.00;;
9807;SDS011;4943;52.550;13.462;2023-08-24T07:30:53;502.97;;;459.87;;
9807;SDS011;4943;52.550;13.462;2023-08-24T07:33:22;470.27;;;428.10;;
9807;SDS011;4943;52.550;13.462;2023-08-24T07:35:52;475.47;;;433.23;;
9807;SDS011;4943;52.550;13.462;2023-08-24T07:38:20;512.83;;;469.70;;
9807;SDS011;4943;52.550;13.462;2023-08-24T07:40:49;486.37;;;443.80;;
9807;SDS011;4943;52.550;13.462;2023-08-24T07:43:18;495.47;;;452.60;;
9807;SDS011;4943;52.550;13.462;2023-08-24T07:45:46;508.97;;;465.50;;
9807;SDS011;4943;52.550;13.462;2023-08-24T07:48:15;500.03;;;457.03;;
9807;SDS011;4943;52.550;13.462;2023-08-24T07:50:43;518.73;;;475.40;;
9807;SDS011;4943;52.550;13.462;2023-08-24T07:53:11;506.93;;;463.60;;
9807;SDS011;4943;52.550;13.462;2023-08-24T07:55:40;534.63;;;490.43;;
9807;SDS011;4943;52.550;13.462;2023-08-24T07:58:09;534.63;;;490.37;;
9807;SDS011;4943;52.550;13.462;2023-08-24T08:00:39;547.87;;;502.80;;
9807;SDS011;4943;52.550;13.462;2023-08-24T08:03:07;555.90;;;510.93;;
9807;SDS011;4943;52.550;13.462;2023-08-24T08:05:35;550.53;;;505.70;;
9807;SDS011;4943;52.550;13.462;2023-08-24T08:08:04;583.90;;;538.33;;
9807;SDS011;4943;52.550;13.462;2023-08-24T08:10:32;581.13;;;535.80;;
9807;SDS011;4943;52.550;13.462;2023-08-24T08:13:00;579.77;;;534.37;;
9807;SDS011;4943;52.550;13.462;2023-08-24T08:15:28;607.10;;;561.03;;
9807;SDS011;4943;52.550;13.462;2023-08-24T08:17:58;610.43;;;564.20;;
9807;SDS011;4943;52.550;13.462;2023-08-24T08:20:26;590.27;;;544.60;;
9807;SDS011;4943;52.550;13.462;2023-08-24T08:22:55;587.10;;;541.67;;
9807;SDS011;4943;52.550;13.462;2023-08-24T08:25:23;590.33;;;544.77;;
9807;SDS011;4943;52.550;13.462;2023-08-24T08:27:51;614.83;;;568.53;;
9807;SDS011;4943;52.550;13.462;2023-08-24T08:30:19;614.43;;;567.97;;
9807;SDS011;4943;52.550;13.462;2023-08-24T08:32:48;610.77;;;564.97;;
9807;SDS011;4943;52.550;13.462;2023-08-24T08:35:21;637.57;;;590.87;;
9807;SDS011;4943;52.550;13.462;2023-08-24T08:37:49;622.07;;;575.73;;
9807;SDS011;4943;52.550;13.462;2023-08-24T08:40:20;637.57;;;590.70;;
9807;SDS011;4943;52.550;13.462;2023-08-24T08:42:48;621.90;;;575.57;;
9807;SDS011;4943;52.550;13.462;2023-08-24T08:45:18;627.80;;;581.43;;
9807;SDS011;4943;52.550;13.462;2023-08-24T08:47:48;615.57;;;569.27;;
9807;SDS011;4943;52.550;13.462;2023-08-24T08:50:17;660.13;;;612.70;;
9807;SDS011;4943;52.550;13.462;2023-08-24T08:52:47;642.63;;;595.73;;
9807;SDS011;4943;52.550;13.462;2023-08-24T08:55:15;620.70;;;574.60;;
9807;SDS011;4943;52.550;13.462;2023-08-24T08:57:43;639.93;;;593.03;;
9807;SDS011;4943;52.550;13.462;2023-08-24T09:00:13;624.30;;;578.20;;
9807;SDS011;4943;52.550;13.462;2023-08-24T09:02:43;622.63;;;576.57;;
9807;SDS011;4943;52.550;13.462;2023-08-24T09:05:12;631.63;;;584.90;;
9807;SDS011;4943;52.550;13.462;2023-08-24T09:07:41;624.30;;;578.03;;
9807;SDS011;4943;52.550;13.462;2023-08-24T09:10:10;603.47;;;557.73;;
9807;SDS011;4943;52.550;13.462;2023-08-24T09:12:38;621.97;;;575.70;;
9807;SDS011;4943;52.550;13.462;2023-08-24T09:15:07;643.73;;;596.63;;
9807;SDS011;4943;52.550;13.462;2023-08-24T09:17:36;613.37;;;566.93;;
9807;SDS011;4943;52.550;13.462;2023-08-24T09:20:10;597.07;;;551.73;;
9807;SDS011;4943;52.550;13.462;2023-08-24T09:22:39;620.17;;;574.10;;
9807;SDS011;4943;52.550;13.462;2023-08-24T09:25:10;605.10;;;559.20;;
9807;SDS011;4943;52.550;13.462;2023-08-24T09:27:38;625.93;;;579.37;;
9807;SDS011;4943;52.550;13.462;2023-08-24T09:30:08;598.57;;;552.90;;
9807;SDS011;4943;52.550;13.462;2023-08-24T09:32:37;599.63;;;554.23;;
9807;SDS011;4943;52.550;13.462;2023-08-24T09:35:08;622.60;;;576.30;;
9807;SDS011;4943;52.550;13.462;2023-08-24T09:37:37;605.07;;;559.43;;
9807;SDS011;4943;52.550;13.462;2023-08-24T09:40:06;604.60;;;558.47;;
9807;SDS011;4943;52.550;13.462;2023-08-24T09:42:40;611.90;;;565.93;;
9807;SDS011;4943;52.550;13.462;2023-08-24T09:45:11;604.90;;;559.27;;
9807;SDS011;4943;52.550;13.462;2023-08-24T09:47:44;578.13;;;533.17;;
9807;SDS011;4943;52.550;13.462;2023-08-24T09:50:14;597.57;;;551.70;;
9807;SDS011;4943;52.550;13.462;2023-08-24T09:52:42;618.03;;;571.43;;
9807;SDS011;4943;52.550;13.462;2023-08-24T09:55:12;583.33;;;538.10;;
9807;SDS011;4943;52.550;13.462;2023-08-24T09:57:44;594.30;;;547.97;;
9807;SDS011;4943;52.550;13.462;2023-08-24T10:00:13;585.93;;;540.30;;
9807;SDS011;4943;52.550;13.462;2023-08-24T10:02:45;596.93;;;551.07;;
9807;SDS011;4943;52.550;13.462;2023-08-24T10:05:19;612.10;;;565.67;;
9807;SDS011;4943;52.550;13.462;2023-08-24T10:08:07;597.60;;;551.97;;
9807;SDS011;4943;52.550;13.462;2023-08-24T10:10:37;605.67;;;559.53;;
9807;SDS011;4943;52.550;13.462;2023-08-24T10:13:10;576.60;;;530.47;;
9807;SDS011;4943;52.550;13.462;2023-08-24T10:15:58;583.33;;;538.03;;
9807;SDS011;4943;52.550;13.462;2023-08-24T10:18:27;610.40;;;564.43;;
9807;SDS011;4943;52.550;13.462;2023-08-24T10:20:56;594.97;;;549.57;;
9807;SDS011;4943;52.550;13.462;2023-08-24T10:23:24;587.70;;;542.50;;
9807;SDS011;4943;52.550;13.462;2023-08-24T10:25:59;589.60;;;544.13;;
9807;SDS011;4943;52.550;13.462;2023-08-24T10:28:31;610.23;;;563.80;;
9807;SDS011;4943;52.550;13.462;2023-08-24T10:31:00;590.93;;;545.77;;
9807;SDS011;4943;52.550;13.462;2023-08-24T10:33:29;582.60;;;537.60;;
9807;SDS011;4943;52.550;13.462;2023-08-24T10:36:00;583.33;;;538.43;;
9807;SDS011;4943;52.550;13.462;2023-08-24T10:38:39;629.67;;;583.37;;
9807;SDS011;4943;52.550;13.462;2023-08-24T10:41:08;628.30;;;581.80;;
9807;SDS011;4943;52.550;13.462;2023-08-24T10:43:48;581.37;;;536.57;;
9807;SDS011;4943;52.550;13.462;2023-08-24T10:46:16;592.70;;;547.13;;
9807;SDS011;4943;52.550;13.462;2023-08-24T10:48:57;584.47;;;539.30;;
9807;SDS011;4943;52.550;13.462;2023-08-24T10:51:27;607.40;;;561.30;;
9807;SDS011;4943;52.550;13.462;2023-08-24T10:53:58;628.60;;;581.93;;
9807;SDS011;4943;52.550;13.462;2023-08-24T10:56:34;610.00;;;564.17;;
9807;SDS011;4943;52.550;13.462;2023-08-24T10:59:12;602.33;;;556.83;;
9807;SDS011;4943;52.550;13.462;2023-08-24T11:01:42;625.33;;;579.10;;
9807;SDS011;4943;52.550;13.462;2023-08-24T11:04:11;623.33;;;577.13;;
9807;SDS011;4943;52.550;13.462;2023-08-24T11:06:52;605.53;;;560.13;;
9807;SDS011;4943;52.550;13.462;2023-08-24T11:09:22;593.17;;;548.07;;
9807;SDS011;4943;52.550;13.462;2023-08-24T11:11:57;608.47;;;562.87;;
9807;SDS011;4943;52.550;13.462;2023-08-24T11:14:29;619.13;;;573.17;;
9807;SDS011;4943;52.550;13.462;2023-08-24T11:17:01;626.40;;;579.97;;
9807;SDS011;4943;52.550;13.462;2023-08-24T11:19:47;615.00;;;569.13;;
9807;SDS011;4943;52.550;13.462;2023-08-24T11:22:16;633.67;;;586.63;;
9807;SDS011;4943;52.550;13.462;2023-08-24T11:24:45;630.27;;;583.77;;
9807;SDS011;4943;52.550;13.462;2023-08-24T11:27:13;643.23;;;596.47;;
9807;SDS011;4943;52.550;13.462;2023-08-24T11:29:44;636.97;;;590.43;;
9807;SDS011;4943;52.550;13.462;2023-08-24T11:32:12;649.77;;;602.73;;
9807;SDS011;4943;52.550;13.462;2023-08-24T11:34:40;668.87;;;621.23;;
9807;SDS011;4943;52.550;13.462;2023-08-24T11:37:18;645.73;;;598.57;;
9807;SDS011;4943;52.550;13.462;2023-08-24T11:39:47;651.40;;;604.43;;
9807;SDS011;4943;52.550;13.462;2023-08-24T11:42:15;659.93;;;612.70;;
9807;SDS011;4943;52.550;13.462;2023-08-24T11:44:47;642.90;;;596.40;;
9807;SDS011;4943;52.550;13.462;2023-08-24T11:47:16;658.00;;;610.93;;
9807;SDS011;4943;52.550;13.462;2023-08-24T11:49:49;651.07;;;603.90;;
9807;SDS011;4943;52.550;13.462;2023-08-24T11:52:17;659.33;;;612.13;;
9807;SDS011;4943;52.550;13.462;2023-08-24T11:54:46;679.80;;;632.03;;
9807;SDS011;4943;52.550;13.462;2023-08-24T11:57:14;646.93;;;599.70;;
9807;SDS011;4943;52.550;13.462;2023-08-24T11:59:42;658.50;;;611.47;;
9807;SDS011;4943;52.550;13.462;2023-08-24T12:02:13;637.10;;;590.70;;
9807;SDS011;4943;52.550;13.462;2023-08-24T12:04:43;664.00;;;615.77;;
9807;SDS011;4943;52.550;13.462;2023-08-24T12:07:12;674.10;;;626.53;;
9807;SDS011;4943;52.550;13.462;2023-08-24T12:09:40;661.30;;;613.80;;
9807;SDS011;4943;52.550;13.462;2023-08-24T12:12:12;660.20;;;613.27;;
9807;SDS011;4943;52.550;13.462;2023-08-24T12:14:41;651.73;;;604.87;;
9807;SDS011;4943;52.550;13.462;2023-08-24T12:17:09;668.93;;;621.70;;
9807;SDS011;4943;52.550;13.462;2023-08-24T12:19:42;679.77;;;631.53;;
9807;SDS011;4943;52.550;13.462;2023-08-24T12:22:12;652.07;;;605.17;;
9807;SDS011;4943;52.550;13.462;2023-08-24T12:24:43;683.03;;;635.17;;
9807;SDS011;4943;52.550;13.462;2023-08-24T12:27:17;654.17;;;606.93;;
9807;SDS011;4943;52.550;13.462;2023-08-24T12:29:46;665.17;;;617.90;;
9807;SDS011;4943;52.550;13.462;2023-08-24T12:32:14;659.47;;;612.20;;
9807;SDS011;4943;52.550;13.462;2023-08-24T12:34:47;660.27;;;613.20;;
9807;SDS011;4943;52.550;13.462;2023-08-24T12:37:17;635.00;;;588.63;;
9807;SDS011;4943;52.550;13.462;2023-08-24T12:39:46;687.47;;;639.67;;
9807;SDS011;4943;52.550;13.462;2023-08-24T12:42:15;656.83;;;609.77;;
9807;SDS011;4943;52.550;13.462;2023-08-24T12:44:43;662.60;;;615.23;;
9807;SDS011;4943;52.550;13.462;2023-08-24T12:47:11;671.67;;;624.17;;
9807;SDS011;4943;52.550;13.462;2023-08-24T12:49:39;699.37;;;651.00;;
9807;SDS011;4943;52.550;13.462;2023-08-24T12:52:09;678.93;;;630.87;;
9807;SDS011;4943;52.550;13.462;2023-08-24T12:54:37;687.17;;;639.30;;
9807;SDS011;4943;52.550;13.462;2023-08-24T12:57:05;700.03;;;651.63;;
9807;SDS011;4943;52.550;13.462;2023-08-24T12:59:33;727.10;;;677.67;;
9807;SDS011;4943;52.550;13.462;2023-08-24T13:02:01;691.77;;;644.00;;
9807;SDS011;4943;52.550;13.462;2023-08-24T13:04:31;712.07;;;663.43;;
9807;SDS011;4943;52.550;13.462;2023-08-24T13:07:00;713.07;;;664.37;;
9807;SDS011;4943;52.550;13.462;2023-08-24T13:09:30;694.67;;;646.57;;
9807;SDS011;4943;52.550;13.462;2023-08-24T13:11:58;710.90;;;662.70;;
9807;SDS011;4943;52.550;13.462;2023-08-24T13:14:26;714.47;;;665.33;;
9807;SDS011;4943;52.550;13.462;2023-08-24T13:16:54;719.67;;;671.17;;
9807;SDS011;4943;52.550;13.462;2023-08-24T13:19:22;733.97;;;684.53;;
9807;SDS011;4943;52.550;13.462;2023-08-24T13:21:51;731.67;;;682.57;;
9807;SDS011;4943;52.550;13.462;2023-08-24T13:24:19;719.50;;;670.33;;
9807;SDS011;4943;52.550;13.462;2023-08-24T13:26:48;739.33;;;690.00;;
9807;SDS011;4943;52.550;13.462;2023-08-24T13:29:16;747.83;;;698.28;;
9807;SDS011;4943;52.550;13.462;2023-08-24T13:31:45;749.35;;;699.90;;
9807;SDS011;4943;52.550;13.462;2023-08-24T13:34:13;738.85;;;689.65;;
9807;SDS011;4943;52.550;13.462;2023-08-24T13:36:41;764.50;;;714.30;;
9807;SDS011;4943;52.550;13.462;2023-08-24T13:39:09;753.90;;;704.20;;
9807;SDS011;4943;52.550;13.462;2023-08-24T13:41:38;773.92;;;723.33;;
9807;SDS011;4943;52.550;13.462;2023-08-24T13:44:07;768.03;;;718.13;;
9807;SDS011;4943;52.550;13.462;2023-08-24T13:46:35;787.30;;;736.33;;
9807;SDS011;4943;52.550;13.462;2023-08-24T13:49:03;786.83;;;735.95;;
9807;SDS011;4943;52.550;13.462;2023-08-24T13:51:32;787.22;;;736.38;;
9807;SDS011;4943;52.550;13.462;2023-08-24T13:54:00;795.00;;;744.05;;
9807;SDS011;4943;52.550;13.462;2023-08-24T13:56:28;781.13;;;730.33;;
9807;SDS011;4943;52.550;13.462;2023-08-24T13:58:56;776.55;;;726.08;;
9807;SDS011;4943;52.550;13.462;2023-08-24T14:01:26;781.80;;;730.78;;
9807;SDS011;4943;52.550;13.462;2023-08-24T14:03:55;785.95;;;735.00;;
9807;SDS011;4943;52.550;13.462;2023-08-24T14:06:23;789.78;;;739.13;;
9807;SDS011;4943;52.550;13.462;2023-08-24T14:08:51;779.30;;;728.90;;
9807;SDS011;4943;52.550;13.462;2023-08-24T14:11:19;803.55;;;752.22;;
9807;SDS011;4943;52.550;13.462;2023-08-24T14:13:48;783.22;;;733.03;;
9807;SDS011;4943;52.550;13.462;2023-08-24T14:16:16;786.63;;;736.08;;
9807;SDS011;4943;52.550;13.462;2023-08-24T14:18:46;789.78;;;739.15;;
9807;SDS011;4943;52.550;13.462;2023-08-24T14:21:14;805.60;;;754.35;;